sensor_id;sensor_type;location;lat;lon;timestamp;P1;durP1;ratioP1;P2;durP2;ratioP2
61393;SDS011;48555;50.952;-0.120;2023-12-20T00:01:00;9.18;;;1.73;;
61393;SDS011;48555;50.952;-0.120;2023-12-20T00:03:25;5.57;;;2.10;;
61393;SDS011;48555;50.952;-0.120;2023-12-20T00:05:51;9.73;;;1.95;;
61393;SDS011;48555;50.952;-0.120;2023-12-20T00:08:16;4.45;;;1.30;;
61393;SDS011;48555;50.952;-0.120;2023-12-20T00:10:43;3.75;;;1.27;;
61393;SDS011;48555;50.952;-0.120;2023-12-20T00:13:09;6.40;;;1.50;;
61393;SDS011;48555;50.952;-0.120;2023-12-20T00:15:34;8.20;;;1.73;;
61393;SDS011;48555;50.952;-0.120;2023-12-20T00:18:00;5.97;;;1.67;;
61393;SDS011;48555;50.952;-0.120;2023-12-20T00:20:26;5.40;;;1.63;;
61393;SDS011;48555;50.952;-0.120;2023-12-20T00:22:51;7.72;;;1.52;;
61393;SDS011;48555;50.952;-0.120;2023-12-20T00:25:17;5.68;;;1.58;;
61393;SDS011;48555;50.952;-0.120;2023-12-20T00:27:42;5.70;;;1.60;;
61393;SDS011;48555;50.952;-0.120;2023-12-20T00:30:08;6.30;;;1.88;;
61393;SDS011;48555;50.952;-0.120;2023-12-20T00:32:34;4.80;;;1.73;;
61393;SDS011;48555;50.952;-0.120;2023-12-20T00:35:00;6.65;;;1.83;;
61393;SDS011;48555;50.952;-0.120;2023-12-20T00:37:25;5.13;;;1.60;;
61393;SDS011;48555;50.952;-0.120;2023-12-20T00:39:51;5.40;;;1.27;;
61393;SDS011;48555;50.952;-0.120;2023-12-20T00:42:16;2.80;;;1.45;;
61393;SDS011;48555;50.952;-0.120;2023-12-20T00:44:41;7.97;;;2.03;;
61393;SDS011;48555;50.952;-0.120;2023-12-20T00:47:07;3.83;;;1.48;;
61393;SDS011;48555;50.952;-0.120;2023-12-20T00:49:32;6.28;;;1.75;;
61393;SDS011;48555;50.952;-0.120;2023-12-20T00:51:57;7.63;;;2.13;;
61393;SDS011;48555;50.952;-0.120;2023-12-20T00:54:23;5.10;;;1.67;;
61393;SDS011;48555;50.952;-0.120;2023-12-20T00:56:48;4.32;;;1.33;;
61393;SDS011;48555;50.952;-0.120;2023-12-20T00:59:13;6.38;;;1.48;;
61393;SDS011;48555;50.952;-0.120;2023-12-20T01:01:39;5.78;;;1.65;;
61393;SDS011;48555;50.952;-0.120;2023-12-20T01:04:05;4.90;;;1.33;;
61393;SDS011;48555;50.952;-0.120;2023-12-20T01:06:30;6.78;;;2.03;;
61393;SDS011;48555;50.952;-0.120;2023-12-20T01:08:55;4.30;;;1.20;;
61393;SDS011;48555;50.952;-0.120;2023-12-20T01:11:21;4.60;;;1.40;;
61393;SDS011;48555;50.952;-0.120;2023-12-20T01:13:47;4.68;;;1.60;;
61393;SDS011;48555;50.952;-0.120;2023-12-20T01:16:12;7.88;;;1.73;;
61393;SDS011;48555;50.952;-0.120;2023-12-20T01:18:37;7.70;;;2.08;;
61393;SDS011;48555;50.952;-0.120;2023-12-20T01:21:03;5.30;;;1.63;;
61393;SDS011;48555;50.952;-0.120;2023-12-20T01:23:29;5.07;;;1.48;;
61393;SDS011;48555;50.952;-0.120;2023-12-20T01:25:55;5.20;;;1.40;;
61393;SDS011;48555;50.952;-0.120;2023-12-20T01:28:20;4.10;;;1.27;;
61393;SDS011;48555;50.952;-0.120;2023-12-20T01:30:46;6.32;;;1.20;;
61393;SDS011;48555;50.952;-0.120;2023-12-20T01:33:11;5.38;;;1.38;;
61393;SDS011;48555;50.952;-0.120;2023-12-20T01:35:36;2.78;;;1.30;;
61393;SDS011;48555;50.952;-0.120;2023-12-20T01:38:02;3.10;;;1.40;;
61393;SDS011;48555;50.952;-0.120;2023-12-20T01:40:27;6.40;;;1.42;;
61393;SDS011;48555;50.952;-0.120;2023-12-20T01:43:03;5.47;;;1.42;;
61393;SDS011;48555;50.952;-0.120;2023-12-20T01:45:32;8.23;;;1.70;;
61393;SDS011;48555;50.952;-0.120;2023-12-20T01:47:58;6.68;;;1.40;;
61393;SDS011;48555;50.952;-0.120;2023-12-20T01:50:24;7.95;;;1.52;;
61393;SDS011;48555;50.952;-0.120;2023-12-20T01:52:50;6.82;;;1.40;;
61393;SDS011;48555;50.952;-0.120;2023-12-20T01:55:18;7.15;;;1.48;;
61393;SDS011;48555;50.952;-0.120;2023-12-20T01:57:44;6.55;;;1.40;;
61393;SDS011;48555;50.952;-0.120;2023-12-20T02:00:10;7.38;;;1.67;;
61393;SDS011;48555;50.952;-0.120;2023-12-20T02:02:39;3.40;;;1.52;;
61393;SDS011;48555;50.952;-0.120;2023-12-20T02:05:05;8.80;;;1.75;;
61393;SDS011;48555;50.952;-0.120;2023-12-20T02:07:31;5.70;;;1.70;;
61393;SDS011;48555;50.952;-0.120;2023-12-20T02:09:57;4.80;;;1.60;;
61393;SDS011;48555;50.952;-0.120;2023-12-20T02:12:22;7.88;;;1.55;;
61393;SDS011;48555;50.952;-0.120;2023-12-20T02:14:48;4.00;;;1.23;;
61393;SDS011;48555;50.952;-0.120;2023-12-20T02:17:14;6.40;;;1.45;;
61393;SDS011;48555;50.952;-0.120;2023-12-20T02:19:40;5.57;;;1.50;;
61393;SDS011;48555;50.952;-0.120;2023-12-20T02:22:06;5.72;;;1.80;;
61393;SDS011;48555;50.952;-0.120;2023-12-20T02:24:32;8.05;;;1.30;;
61393;SDS011;48555;50.952;-0.120;2023-12-20T02:26:58;5.28;;;1.58;;
61393;SDS011;48555;50.952;-0.120;2023-12-20T02:29:23;6.88;;;1.48;;
61393;SDS011;48555;50.952;-0.120;2023-12-20T02:31:49;5.80;;;1.52;;
61393;SDS011;48555;50.952;-0.120;2023-12-20T02:34:14;7.78;;;1.98;;
61393;SDS011;48555;50.952;-0.120;2023-12-20T02:36:39;7.72;;;1.75;;
61393;SDS011;48555;50.952;-0.120;2023-12-20T02:39:04;8.13;;;1.90;;
61393;SDS011;48555;50.952;-0.120;2023-12-20T02:41:30;5.97;;;1.45;;
61393;SDS011;48555;50.952;-0.120;2023-12-20T02:43:55;7.68;;;1.70;;
61393;SDS011;48555;50.952;-0.120;2023-12-20T02:46:20;7.65;;;1.55;;
61393;SDS011;48555;50.952;-0.120;2023-12-20T02:48:46;7.10;;;1.60;;
61393;SDS011;48555;50.952;-0.120;2023-12-20T02:51:12;5.95;;;1.42;;
61393;SDS011;48555;50.952;-0.120;2023-12-20T02:53:37;6.93;;;1.38;;
61393;SDS011;48555;50.952;-0.120;2023-12-20T02:56:03;6.55;;;1.50;;
61393;SDS011;48555;50.952;-0.120;2023-12-20T02:58:28;8.20;;;2.35;;
61393;SDS011;48555;50.952;-0.120;2023-12-20T03:00:53;4.57;;;1.45;;
61393;SDS011;48555;50.952;-0.120;2023-12-20T03:03:19;7.50;;;2.33;;
61393;SDS011;48555;50.952;-0.120;2023-12-20T03:05:45;5.90;;;1.45;;
61393;SDS011;48555;50.952;-0.120;2023-12-20T03:08:11;6.25;;;1.70;;
61393;SDS011;48555;50.952;-0.120;2023-12-20T03:10:36;7.97;;;1.50;;
61393;SDS011;48555;50.952;-0.120;2023-12-20T03:13:02;8.43;;;2.00;;
61393;SDS011;48555;50.952;-0.120;2023-12-20T03:15:27;5.20;;;1.65;;
61393;SDS011;48555;50.952;-0.120;2023-12-20T03:17:52;3.92;;;1.23;;
61393;SDS011;48555;50.952;-0.120;2023-12-20T03:20:18;5.35;;;1.27;;
61393;SDS011;48555;50.952;-0.120;2023-12-20T03:22:43;8.38;;;1.52;;
61393;SDS011;48555;50.952;-0.120;2023-12-20T03:25:08;6.65;;;1.50;;
61393;SDS011;48555;50.952;-0.120;2023-12-20T03:27:36;5.63;;;1.42;;
61393;SDS011;48555;50.952;-0.120;2023-12-20T03:30:03;7.75;;;1.70;;
61393;SDS011;48555;50.952;-0.120;2023-12-20T03:32:29;7.10;;;1.63;;
61393;SDS011;48555;50.952;-0.120;2023-12-20T03:34:55;9.93;;;2.10;;
61393;SDS011;48555;50.952;-0.120;2023-12-20T03:37:21;6.57;;;1.80;;
61393;SDS011;48555;50.952;-0.120;2023-12-20T03:39:47;5.57;;;2.10;;
61393;SDS011;48555;50.952;-0.120;2023-12-20T03:42:12;9.38;;;1.77;;
61393;SDS011;48555;50.952;-0.120;2023-12-20T03:44:41;8.35;;;1.73;;
61393;SDS011;48555;50.952;-0.120;2023-12-20T03:47:06;8.25;;;2.30;;
61393;SDS011;48555;50.952;-0.120;2023-12-20T03:49:32;9.43;;;2.17;;
61393;SDS011;48555;50.952;-0.120;2023-12-20T03:51:57;6.07;;;1.95;;
61393;SDS011;48555;50.952;-0.120;2023-12-20T03:54:22;7.78;;;1.80;;
61393;SDS011;48555;50.952;-0.120;2023-12-20T03:56:48;6.28;;;1.65;;
61393;SDS011;48555;50.952;-0.120;2023-12-20T03:59:13;6.70;;;1.30;;
61393;SDS011;48555;50.952;-0.120;2023-12-20T04:01:39;7.60;;;1.60;;
61393;SDS011;48555;50.952;-0.120;2023-12-20T04:04:08;7.30;;;1.88;;
61393;SDS011;48555;50.952;-0.120;2023-12-20T04:06:34;6.78;;;1.67;;
61393;SDS011;48555;50.952;-0.120;2023-12-20T04:08:59;5.50;;;1.33;;
61393;SDS011;48555;50.952;-0.120;2023-12-20T04:11:24;5.43;;;1.60;;
61393;SDS011;48555;50.952;-0.120;2023-12-20T04:13:50;7.15;;;1.63;;
61393;SDS011;48555;50.952;-0.120;2023-12-20T04:16:15;10.02;;;1.83;;
61393;SDS011;48555;50.952;-0.120;2023-12-20T04:18:41;6.20;;;1.60;;
61393;SDS011;48555;50.952;-0.120;2023-12-20T04:21:06;7.25;;;1.45;;
61393;SDS011;48555;50.952;-0.120;2023-12-20T04:23:32;8.88;;;1.60;;
61393;SDS011;48555;50.952;-0.120;2023-12-20T04:25:57;8.75;;;1.80;;
61393;SDS011;48555;50.952;-0.120;2023-12-20T04:28:22;7.13;;;1.88;;
61393;SDS011;48555;50.952;-0.120;2023-12-20T04:30:48;7.57;;;1.80;;
61393;SDS011;48555;50.952;-0.120;2023-12-20T04:33:14;5.13;;;1.75;;
61393;SDS011;48555;50.952;-0.120;2023-12-20T04:35:39;13.38;;;1.90;;
61393;SDS011;48555;50.952;-0.120;2023-12-20T04:38:06;9.82;;;1.75;;
61393;SDS011;48555;50.952;-0.120;2023-12-20T04:40:31;8.77;;;1.83;;
61393;SDS011;48555;50.952;-0.120;2023-12-20T04:42:57;9.85;;;2.70;;
61393;SDS011;48555;50.952;-0.120;2023-12-20T04:45:22;8.13;;;1.90;;
61393;SDS011;48555;50.952;-0.120;2023-12-20T04:47:49;8.32;;;1.80;;
61393;SDS011;48555;50.952;-0.120;2023-12-20T04:50:15;6.72;;;2.00;;
61393;SDS011;48555;50.952;-0.120;2023-12-20T04:52:40;9.43;;;2.05;;
61393;SDS011;48555;50.952;-0.120;2023-12-20T04:55:06;8.27;;;1.90;;
61393;SDS011;48555;50.952;-0.120;2023-12-20T04:57:31;7.00;;;1.80;;
61393;SDS011;48555;50.952;-0.120;2023-12-20T04:59:57;13.95;;;2.17;;
61393;SDS011;48555;50.952;-0.120;2023-12-20T05:02:22;7.18;;;2.15;;
61393;SDS011;48555;50.952;-0.120;2023-12-20T05:04:48;8.00;;;1.50;;
61393;SDS011;48555;50.952;-0.120;2023-12-20T05:07:13;6.13;;;1.38;;
61393;SDS011;48555;50.952;-0.120;2023-12-20T05:09:38;10.63;;;2.45;;
61393;SDS011;48555;50.952;-0.120;2023-12-20T05:12:04;10.82;;;2.08;;
61393;SDS011;48555;50.952;-0.120;2023-12-20T05:14:30;11.27;;;1.80;;
61393;SDS011;48555;50.952;-0.120;2023-12-20T05:16:55;8.35;;;2.42;;
61393;SDS011;48555;50.952;-0.120;2023-12-20T05:19:21;10.02;;;1.73;;
61393;SDS011;48555;50.952;-0.120;2023-12-20T05:21:47;7.32;;;1.70;;
61393;SDS011;48555;50.952;-0.120;2023-12-20T05:24:12;10.32;;;2.03;;
61393;SDS011;48555;50.952;-0.120;2023-12-20T05:26:37;8.85;;;2.08;;
61393;SDS011;48555;50.952;-0.120;2023-12-20T05:29:03;10.48;;;2.30;;
61393;SDS011;48555;50.952;-0.120;2023-12-20T05:31:28;5.43;;;1.80;;
61393;SDS011;48555;50.952;-0.120;2023-12-20T05:33:54;11.75;;;2.28;;
61393;SDS011;48555;50.952;-0.120;2023-12-20T05:36:19;10.05;;;2.20;;
61393;SDS011;48555;50.952;-0.120;2023-12-20T05:38:44;9.77;;;1.88;;
61393;SDS011;48555;50.952;-0.120;2023-12-20T05:41:10;7.78;;;1.83;;
61393;SDS011;48555;50.952;-0.120;2023-12-20T05:43:35;11.65;;;1.98;;
61393;SDS011;48555;50.952;-0.120;2023-12-20T05:46:00;7.57;;;1.90;;
61393;SDS011;48555;50.952;-0.120;2023-12-20T05:48:26;7.43;;;1.88;;
61393;SDS011;48555;50.952;-0.120;2023-12-20T05:50:52;6.55;;;1.60;;
61393;SDS011;48555;50.952;-0.120;2023-12-20T05:53:17;5.68;;;1.50;;
61393;SDS011;48555;50.952;-0.120;2023-12-20T05:55:43;6.40;;;1.65;;
61393;SDS011;48555;50.952;-0.120;2023-12-20T05:58:08;12.32;;;2.22;;
61393;SDS011;48555;50.952;-0.120;2023-12-20T06:00:34;10.27;;;1.75;;
61393;SDS011;48555;50.952;-0.120;2023-12-20T06:02:59;12.38;;;2.25;;
61393;SDS011;48555;50.952;-0.120;2023-12-20T06:05:24;9.43;;;1.70;;
61393;SDS011;48555;50.952;-0.120;2023-12-20T06:07:50;7.00;;;1.77;;
61393;SDS011;48555;50.952;-0.120;2023-12-20T06:10:16;9.77;;;2.00;;
61393;SDS011;48555;50.952;-0.120;2023-12-20T06:12:41;7.65;;;1.63;;
61393;SDS011;48555;50.952;-0.120;2023-12-20T06:15:07;9.55;;;1.85;;
61393;SDS011;48555;50.952;-0.120;2023-12-20T06:17:32;12.43;;;2.28;;
61393;SDS011;48555;50.952;-0.120;2023-12-20T06:19:59;8.18;;;1.55;;
61393;SDS011;48555;50.952;-0.120;2023-12-20T06:22:25;11.75;;;2.33;;
61393;SDS011;48555;50.952;-0.120;2023-12-20T06:24:50;8.20;;;2.10;;
61393;SDS011;48555;50.952;-0.120;2023-12-20T06:27:16;8.25;;;1.73;;
61393;SDS011;48555;50.952;-0.120;2023-12-20T06:29:41;8.18;;;1.88;;
61393;SDS011;48555;50.952;-0.120;2023-12-20T06:32:07;10.82;;;2.00;;
61393;SDS011;48555;50.952;-0.120;2023-12-20T06:34:33;7.80;;;1.50;;
61393;SDS011;48555;50.952;-0.120;2023-12-20T06:36:58;9.52;;;2.42;;
61393;SDS011;48555;50.952;-0.120;2023-12-20T06:39:23;8.32;;;2.28;;
61393;SDS011;48555;50.952;-0.120;2023-12-20T06:41:49;8.98;;;1.75;;
61393;SDS011;48555;50.952;-0.120;2023-12-20T06:44:14;11.98;;;2.13;;
61393;SDS011;48555;50.952;-0.120;2023-12-20T06:46:40;12.38;;;1.90;;
61393;SDS011;48555;50.952;-0.120;2023-12-20T06:49:05;6.30;;;1.48;;
61393;SDS011;48555;50.952;-0.120;2023-12-20T06:51:30;10.95;;;1.70;;
61393;SDS011;48555;50.952;-0.120;2023-12-20T06:53:56;4.93;;;1.60;;
61393;SDS011;48555;50.952;-0.120;2023-12-20T06:56:21;8.70;;;1.70;;
61393;SDS011;48555;50.952;-0.120;2023-12-20T06:58:47;7.90;;;2.05;;
61393;SDS011;48555;50.952;-0.120;2023-12-20T07:01:15;8.63;;;2.20;;
61393;SDS011;48555;50.952;-0.120;2023-12-20T07:03:41;11.52;;;1.65;;
61393;SDS011;48555;50.952;-0.120;2023-12-20T07:06:07;9.70;;;2.13;;
61393;SDS011;48555;50.952;-0.120;2023-12-20T07:08:33;8.00;;;2.05;;
61393;SDS011;48555;50.952;-0.120;2023-12-20T07:10:58;6.18;;;1.75;;
61393;SDS011;48555;50.952;-0.120;2023-12-20T07:13:23;8.05;;;1.70;;
61393;SDS011;48555;50.952;-0.120;2023-12-20T07:15:49;8.65;;;1.80;;
61393;SDS011;48555;50.952;-0.120;2023-12-20T07:18:15;11.15;;;1.60;;
61393;SDS011;48555;50.952;-0.120;2023-12-20T07:20:40;8.65;;;2.50;;
61393;SDS011;48555;50.952;-0.120;2023-12-20T07:23:05;7.78;;;2.08;;
61393;SDS011;48555;50.952;-0.120;2023-12-20T07:25:31;8.43;;;2.13;;
61393;SDS011;48555;50.952;-0.120;2023-12-20T07:27:57;8.85;;;2.28;;
61393;SDS011;48555;50.952;-0.120;2023-12-20T07:30:23;9.27;;;1.73;;
61393;SDS011;48555;50.952;-0.120;2023-12-20T07:32:48;9.18;;;1.85;;
61393;SDS011;48555;50.952;-0.120;2023-12-20T07:35:15;10.40;;;2.30;;
61393;SDS011;48555;50.952;-0.120;2023-12-20T07:37:40;9.82;;;2.05;;
61393;SDS011;48555;50.952;-0.120;2023-12-20T07:40:06;7.20;;;1.77;;
61393;SDS011;48555;50.952;-0.120;2023-12-20T07:42:32;12.57;;;2.00;;
61393;SDS011;48555;50.952;-0.120;2023-12-20T07:44:57;11.30;;;2.15;;
61393;SDS011;48555;50.952;-0.120;2023-12-20T07:47:23;6.53;;;1.80;;
61393;SDS011;48555;50.952;-0.120;2023-12-20T07:49:50;15.00;;;2.35;;
61393;SDS011;48555;50.952;-0.120;2023-12-20T07:52:16;8.48;;;1.98;;
61393;SDS011;48555;50.952;-0.120;2023-12-20T07:54:43;8.88;;;1.88;;
61393;SDS011;48555;50.952;-0.120;2023-12-20T07:57:08;10.65;;;2.20;;
61393;SDS011;48555;50.952;-0.120;2023-12-20T07:59:33;15.07;;;2.35;;
61393;SDS011;48555;50.952;-0.120;2023-12-20T08:01:59;11.73;;;2.28;;
61393;SDS011;48555;50.952;-0.120;2023-12-20T08:04:24;11.45;;;2.50;;
61393;SDS011;48555;50.952;-0.120;2023-12-20T08:06:50;6.22;;;1.77;;
61393;SDS011;48555;50.952;-0.120;2023-12-20T08:09:15;7.25;;;1.80;;
61393;SDS011;48555;50.952;-0.120;2023-12-20T08:11:44;6.32;;;1.85;;
61393;SDS011;48555;50.952;-0.120;2023-12-20T08:14:10;7.88;;;1.98;;
61393;SDS011;48555;50.952;-0.120;2023-12-20T08:16:36;8.65;;;2.28;;
61393;SDS011;48555;50.952;-0.120;2023-12-20T08:19:01;9.18;;;1.50;;
61393;SDS011;48555;50.952;-0.120;2023-12-20T08:21:26;12.10;;;2.28;;
61393;SDS011;48555;50.952;-0.120;2023-12-20T08:23:52;11.68;;;2.05;;
61393;SDS011;48555;50.952;-0.120;2023-12-20T08:26:20;8.30;;;1.95;;
61393;SDS011;48555;50.952;-0.120;2023-12-20T08:28:47;8.80;;;2.13;;
61393;SDS011;48555;50.952;-0.120;2023-12-20T08:31:13;9.80;;;1.50;;
61393;SDS011;48555;50.952;-0.120;2023-12-20T08:33:43;6.35;;;1.80;;
61393;SDS011;48555;50.952;-0.120;2023-12-20T08:36:09;12.38;;;2.05;;
61393;SDS011;48555;50.952;-0.120;2023-12-20T08:38:35;12.15;;;2.20;;
61393;SDS011;48555;50.952;-0.120;2023-12-20T08:41:01;8.43;;;2.20;;
61393;SDS011;48555;50.952;-0.120;2023-12-20T08:43:28;7.63;;;1.90;;
61393;SDS011;48555;50.952;-0.120;2023-12-20T08:45:53;10.02;;;2.33;;
61393;SDS011;48555;50.952;-0.120;2023-12-20T08:48:19;9.98;;;2.03;;
61393;SDS011;48555;50.952;-0.120;2023-12-20T08:50:44;8.38;;;2.17;;
61393;SDS011;48555;50.952;-0.120;2023-12-20T08:53:09;8.05;;;1.70;;
61393;SDS011;48555;50.952;-0.120;2023-12-20T08:55:35;6.65;;;1.70;;
61393;SDS011;48555;50.952;-0.120;2023-12-20T08:58:00;9.50;;;2.10;;
61393;SDS011;48555;50.952;-0.120;2023-12-20T09:00:26;7.03;;;1.80;;
61393;SDS011;48555;50.952;-0.120;2023-12-20T09:02:52;7.82;;;1.85;;
61393;SDS011;48555;50.952;-0.120;2023-12-20T09:05:19;9.10;;;2.00;;
61393;SDS011;48555;50.952;-0.120;2023-12-20T09:07:45;6.15;;;1.40;;
61393;SDS011;48555;50.952;-0.120;2023-12-20T09:10:10;8.05;;;1.83;;
61393;SDS011;48555;50.952;-0.120;2023-12-20T09:12:35;9.57;;;2.20;;
61393;SDS011;48555;50.952;-0.120;2023-12-20T09:15:04;9.15;;;1.75;;
61393;SDS011;48555;50.952;-0.120;2023-12-20T09:17:30;8.70;;;1.73;;
61393;SDS011;48555;50.952;-0.120;2023-12-20T09:19:56;11.27;;;2.08;;
61393;SDS011;48555;50.952;-0.120;2023-12-20T09:22:21;11.25;;;2.00;;
61393;SDS011;48555;50.952;-0.120;2023-12-20T09:24:46;7.22;;;1.73;;
61393;SDS011;48555;50.952;-0.120;2023-12-20T09:27:12;9.73;;;1.88;;
61393;SDS011;48555;50.952;-0.120;2023-12-20T09:29:37;7.70;;;1.90;;
61393;SDS011;48555;50.952;-0.120;2023-12-20T09:32:03;8.70;;;2.22;;
61393;SDS011;48555;50.952;-0.120;2023-12-20T09:34:28;8.57;;;1.95;;
61393;SDS011;48555;50.952;-0.120;2023-12-20T09:36:54;8.82;;;1.73;;
61393;SDS011;48555;50.952;-0.120;2023-12-20T09:39:20;11.35;;;2.40;;
61393;SDS011;48555;50.952;-0.120;2023-12-20T09:41:52;9.00;;;2.70;;
61393;SDS011;48555;50.952;-0.120;2023-12-20T09:44:26;9.75;;;2.00;;
61393;SDS011;48555;50.952;-0.120;2023-12-20T09:46:51;7.70;;;2.03;;
61393;SDS011;48555;50.952;-0.120;2023-12-20T09:49:19;5.43;;;1.60;;
61393;SDS011;48555;50.952;-0.120;2023-12-20T09:51:46;8.57;;;1.90;;
61393;SDS011;48555;50.952;-0.120;2023-12-20T09:54:13;8.38;;;1.95;;
61393;SDS011;48555;50.952;-0.120;2023-12-20T09:56:39;5.38;;;1.50;;
61393;SDS011;48555;50.952;-0.120;2023-12-20T09:59:04;5.93;;;1.42;;
61393;SDS011;48555;50.952;-0.120;2023-12-20T10:01:30;7.93;;;1.70;;
61393;SDS011;48555;50.952;-0.120;2023-12-20T10:03:56;8.05;;;1.80;;
61393;SDS011;48555;50.952;-0.120;2023-12-20T10:06:24;6.10;;;1.55;;
61393;SDS011;48555;50.952;-0.120;2023-12-20T10:08:49;7.22;;;1.80;;
61393;SDS011;48555;50.952;-0.120;2023-12-20T10:11:14;6.82;;;1.67;;
61393;SDS011;48555;50.952;-0.120;2023-12-20T10:13:40;8.30;;;2.13;;
61393;SDS011;48555;50.952;-0.120;2023-12-20T10:16:06;9.43;;;2.22;;
61393;SDS011;48555;50.952;-0.120;2023-12-20T10:18:32;13.52;;;2.35;;
61393;SDS011;48555;50.952;-0.120;2023-12-20T10:20:58;8.73;;;2.08;;
61393;SDS011;48555;50.952;-0.120;2023-12-20T10:23:23;12.00;;;2.20;;
61393;SDS011;48555;50.952;-0.120;2023-12-20T10:25:56;9.48;;;2.00;;
61393;SDS011;48555;50.952;-0.120;2023-12-20T10:28:23;6.38;;;1.38;;
61393;SDS011;48555;50.952;-0.120;2023-12-20T10:30:52;10.95;;;2.10;;
61393;SDS011;48555;50.952;-0.120;2023-12-20T10:33:25;9.27;;;1.80;;
61393;SDS011;48555;50.952;-0.120;2023-12-20T10:35:52;11.60;;;1.95;;
61393;SDS011;48555;50.952;-0.120;2023-12-20T10:38:17;10.20;;;1.80;;
61393;SDS011;48555;50.952;-0.120;2023-12-20T10:40:43;5.43;;;1.60;;
61393;SDS011;48555;50.952;-0.120;2023-12-20T10:43:10;7.53;;;1.67;;
61393;SDS011;48555;50.952;-0.120;2023-12-20T10:45:36;11.20;;;2.50;;
61393;SDS011;48555;50.952;-0.120;2023-12-20T10:48:02;8.02;;;1.98;;
61393;SDS011;48555;50.952;-0.120;2023-12-20T10:50:29;6.35;;;1.70;;
61393;SDS011;48555;50.952;-0.120;2023-12-20T10:52:56;5.32;;;1.70;;
61393;SDS011;48555;50.952;-0.120;2023-12-20T10:55:22;9.55;;;1.80;;
61393;SDS011;48555;50.952;-0.120;2023-12-20T10:57:49;8.32;;;1.85;;
61393;SDS011;48555;50.952;-0.120;2023-12-20T11:00:16;7.43;;;1.95;;
61393;SDS011;48555;50.952;-0.120;2023-12-20T11:02:43;9.25;;;2.15;;
61393;SDS011;48555;50.952;-0.120;2023-12-20T11:08:01;7.03;;;1.95;;
61393;SDS011;48555;50.952;-0.120;2023-12-20T11:10:34;7.40;;;2.08;;
61393;SDS011;48555;50.952;-0.120;2023-12-20T11:13:40;10.10;;;2.63;;
61393;SDS011;48555;50.952;-0.120;2023-12-20T11:16:13;8.77;;;2.50;;
61393;SDS011;48555;50.952;-0.120;2023-12-20T11:18:38;8.93;;;2.00;;
61393;SDS011;48555;50.952;-0.120;2023-12-20T11:21:06;11.75;;;2.35;;
61393;SDS011;48555;50.952;-0.120;2023-12-20T11:23:31;9.60;;;2.38;;
61393;SDS011;48555;50.952;-0.120;2023-12-20T11:25:59;7.63;;;2.10;;
61393;SDS011;48555;50.952;-0.120;2023-12-20T11:28:25;9.43;;;2.40;;
61393;SDS011;48555;50.952;-0.120;2023-12-20T11:33:21;7.30;;;1.95;;
61393;SDS011;48555;50.952;-0.120;2023-12-20T11:35:48;7.65;;;2.25;;
61393;SDS011;48555;50.952;-0.120;2023-12-20T11:38:13;6.90;;;2.28;;
61393;SDS011;48555;50.952;-0.120;2023-12-20T11:40:40;7.57;;;2.42;;
61393;SDS011;48555;50.952;-0.120;2023-12-20T11:43:06;8.20;;;2.03;;
61393;SDS011;48555;50.952;-0.120;2023-12-20T11:45:32;9.38;;;2.00;;
61393;SDS011;48555;50.952;-0.120;2023-12-20T11:47:59;7.28;;;1.98;;
61393;SDS011;48555;50.952;-0.120;2023-12-20T11:50:27;7.68;;;2.00;;
61393;SDS011;48555;50.952;-0.120;2023-12-20T11:52:53;6.75;;;1.40;;
61393;SDS011;48555;50.952;-0.120;2023-12-20T11:55:20;12.00;;;2.10;;
61393;SDS011;48555;50.952;-0.120;2023-12-20T11:57:46;7.07;;;2.00;;
61393;SDS011;48555;50.952;-0.120;2023-12-20T12:00:12;7.90;;;1.88;;
61393;SDS011;48555;50.952;-0.120;2023-12-20T12:02:39;5.60;;;1.40;;
61393;SDS011;48555;50.952;-0.120;2023-12-20T12:05:04;7.18;;;1.77;;
61393;SDS011;48555;50.952;-0.120;2023-12-20T12:07:30;19.55;;;12.60;;
61393;SDS011;48555;50.952;-0.120;2023-12-20T12:09:56;23.70;;;16.30;;
61393;SDS011;48555;50.952;-0.120;2023-12-20T12:12:21;38.88;;;17.67;;
61393;SDS011;48555;50.952;-0.120;2023-12-20T12:14:47;23.95;;;14.05;;
61393;SDS011;48555;50.952;-0.120;2023-12-20T12:17:13;11.73;;;5.47;;
61393;SDS011;48555;50.952;-0.120;2023-12-20T12:19:42;8.70;;;5.35;;
61393;SDS011;48555;50.952;-0.120;2023-12-20T12:22:09;8.32;;;4.70;;
61393;SDS011;48555;50.952;-0.120;2023-12-20T12:24:44;5.45;;;2.80;;
61393;SDS011;48555;50.952;-0.120;2023-12-20T12:27:11;7.13;;;2.05;;
61393;SDS011;48555;50.952;-0.120;2023-12-20T12:29:37;6.30;;;1.85;;
61393;SDS011;48555;50.952;-0.120;2023-12-20T12:32:07;28.95;;;14.38;;
61393;SDS011;48555;50.952;-0.120;2023-12-20T12:34:36;6.95;;;2.67;;
61393;SDS011;48555;50.952;-0.120;2023-12-20T12:37:02;7.07;;;2.38;;
61393;SDS011;48555;50.952;-0.120;2023-12-20T12:39:29;9.23;;;2.92;;
61393;SDS011;48555;50.952;-0.120;2023-12-20T12:41:54;5.78;;;2.00;;
61393;SDS011;48555;50.952;-0.120;2023-12-20T12:44:20;6.13;;;1.90;;
61393;SDS011;48555;50.952;-0.120;2023-12-20T12:46:48;6.40;;;2.45;;
61393;SDS011;48555;50.952;-0.120;2023-12-20T12:49:16;5.95;;;2.78;;
61393;SDS011;48555;50.952;-0.120;2023-12-20T12:51:41;5.78;;;2.10;;
61393;SDS011;48555;50.952;-0.120;2023-12-20T12:54:07;5.43;;;2.00;;
61393;SDS011;48555;50.952;-0.120;2023-12-20T12:56:33;9.18;;;2.20;;
61393;SDS011;48555;50.952;-0.120;2023-12-20T12:58:59;7.13;;;2.42;;
61393;SDS011;48555;50.952;-0.120;2023-12-20T13:01:24;7.78;;;2.65;;
61393;SDS011;48555;50.952;-0.120;2023-12-20T13:03:50;7.03;;;1.90;;
61393;SDS011;48555;50.952;-0.120;2023-12-20T13:06:15;8.30;;;1.92;;
61393;SDS011;48555;50.952;-0.120;2023-12-20T13:08:41;3.72;;;1.30;;
61393;SDS011;48555;50.952;-0.120;2023-12-20T13:11:06;10.10;;;1.33;;
61393;SDS011;48555;50.952;-0.120;2023-12-20T13:13:32;4.85;;;1.27;;
61393;SDS011;48555;50.952;-0.120;2023-12-20T13:15:57;5.05;;;1.55;;
61393;SDS011;48555;50.952;-0.120;2023-12-20T13:18:23;4.85;;;1.50;;
61393;SDS011;48555;50.952;-0.120;2023-12-20T13:20:48;4.72;;;1.48;;
61393;SDS011;48555;50.952;-0.120;2023-12-20T13:23:14;4.68;;;1.40;;
61393;SDS011;48555;50.952;-0.120;2023-12-20T13:25:40;7.30;;;1.35;;
61393;SDS011;48555;50.952;-0.120;2023-12-20T13:28:06;5.47;;;1.50;;
61393;SDS011;48555;50.952;-0.120;2023-12-20T13:30:31;4.80;;;1.52;;
61393;SDS011;48555;50.952;-0.120;2023-12-20T13:32:57;5.32;;;1.30;;
61393;SDS011;48555;50.952;-0.120;2023-12-20T13:35:22;7.13;;;1.70;;
61393;SDS011;48555;50.952;-0.120;2023-12-20T13:37:47;4.82;;;1.17;;
61393;SDS011;48555;50.952;-0.120;2023-12-20T13:40:13;5.20;;;1.40;;
61393;SDS011;48555;50.952;-0.120;2023-12-20T13:42:39;4.25;;;1.42;;
61393;SDS011;48555;50.952;-0.120;2023-12-20T13:45:05;4.68;;;1.70;;
61393;SDS011;48555;50.952;-0.120;2023-12-20T13:47:31;4.18;;;1.30;;
61393;SDS011;48555;50.952;-0.120;2023-12-20T13:49:57;8.98;;;5.72;;
61393;SDS011;48555;50.952;-0.120;2023-12-20T13:52:22;25.88;;;19.58;;
61393;SDS011;48555;50.952;-0.120;2023-12-20T13:54:47;17.90;;;9.10;;
61393;SDS011;48555;50.952;-0.120;2023-12-20T13:57:13;13.18;;;7.03;;
61393;SDS011;48555;50.952;-0.120;2023-12-20T13:59:38;53.47;;;20.48;;
61393;SDS011;48555;50.952;-0.120;2023-12-20T14:02:03;36.38;;;14.65;;
61393;SDS011;48555;50.952;-0.120;2023-12-20T14:04:29;24.92;;;10.93;;
61393;SDS011;48555;50.952;-0.120;2023-12-20T14:06:56;35.40;;;15.98;;
61393;SDS011;48555;50.952;-0.120;2023-12-20T14:09:21;34.25;;;15.20;;
61393;SDS011;48555;50.952;-0.120;2023-12-20T14:11:46;24.60;;;10.70;;
61393;SDS011;48555;50.952;-0.120;2023-12-20T14:14:12;24.52;;;12.35;;
61393;SDS011;48555;50.952;-0.120;2023-12-20T14:16:37;55.63;;;28.60;;
61393;SDS011;48555;50.952;-0.120;2023-12-20T14:19:03;13.38;;;6.47;;
61393;SDS011;48555;50.952;-0.120;2023-12-20T14:21:29;10.65;;;4.20;;
61393;SDS011;48555;50.952;-0.120;2023-12-20T14:23:54;8.23;;;3.05;;
61393;SDS011;48555;50.952;-0.120;2023-12-20T14:26:19;6.30;;;2.40;;
61393;SDS011;48555;50.952;-0.120;2023-12-20T14:28:45;6.63;;;1.75;;